Time;durP1;ratioP1;P1;durP2;ratioP2;P2;SDS_P1;SDS_P2;PMS_P1;PMS_P2;Temp;Humidity;BMP_temperature;BMP_pressure;BME280_temperature;BME280_humidity;BME280_pressure;Samples;Min_cycle;Max_cycle;Signal;HPM_P1;HPM_P2
2020/12/19 00:02:19;;;;;;;11.20;7.53;;;0.00;97.50;;;;;;5032322;28;20263;-87
2020/12/19 00:04:45;;;;;;;8.67;7.17;;;0.00;97.20;;;;;;5044843;28;20313;-81
2020/12/19 00:07:11;;;;;;;8.97;7.23;;;-0.10;97.10;;;;;;5048214;28;20737;-80
2020/12/19 00:09:38;;;;;;;10.40;7.60;;;-0.10;97.20;;;;;;5045445;28;20220;-86
2020/12/19 00:12:05;;;;;;;8.63;7.13;;;-0.20;97.20;;;;;;5042631;28;20269;-82
2020/12/19 00:14:31;;;;;;;11.23;8.03;;;-0.20;97.30;;;;;;5050904;28;20226;-81
2020/12/19 00:16:58;;;;;;;10.70;7.90;;;-0.20;97.20;;;;;;5057366;28;20217;-82
2020/12/19 00:19:24;;;;;;;8.93;7.07;;;-0.20;97.20;;;;;;5048161;28;20283;-84
2020/12/19 00:21:51;;;;;;;9.73;7.43;;;-0.20;97.20;;;;;;5041343;28;20197;-85
2020/12/19 00:24:17;;;;;;;10.00;7.33;;;-0.20;97.00;;;;;;5037521;28;20229;-81
2020/12/19 00:26:44;;;;;;;9.80;7.30;;;-0.20;96.70;;;;;;5046852;28;20281;-80
2020/12/19 00:29:12;;;;;;;10.03;7.17;;;-0.20;96.70;;;;;;5040274;28;20308;-81
2020/12/19 00:31:39;;;;;;;10.17;7.50;;;-0.30;96.60;;;;;;5046934;28;20194;-80
2020/12/19 00:34:07;;;;;;;9.00;7.23;;;-0.20;97.00;;;;;;5041713;28;20226;-83
2020/12/19 00:36:34;;;;;;;9.80;7.50;;;-0.30;96.60;;;;;;5044686;28;20199;-84
2020/12/19 00:39:00;;;;;;;11.33;7.77;;;-0.20;97.00;;;;;;5042929;28;20291;-82
2020/12/19 00:41:27;;;;;;;10.17;7.80;;;-0.20;96.90;;;;;;5046681;28;20301;-83
2020/12/19 00:43:55;;;;;;;13.87;8.97;;;-0.10;96.70;;;;;;5027267;28;20566;-84
2020/12/19 00:46:22;;;;;;;11.97;9.00;;;-0.20;96.60;;;;;;5028807;28;20336;-84
2020/12/19 00:48:49;;;;;;;10.30;8.07;;;-0.20;96.60;;;;;;5026605;28;20289;-86
2020/12/19 00:51:16;;;;;;;10.80;8.23;;;-0.30;96.60;;;;;;5036626;28;20208;-86
2020/12/19 00:53:43;;;;;;;10.53;7.93;;;-0.30;96.70;;;;;;5023818;28;20233;-80
2020/12/19 00:56:20;;;;;;;11.10;8.30;;;-0.30;97.00;;;;;;5023692;28;20214;-85
2020/12/19 00:58:47;;;;;;;10.57;8.17;;;-0.20;96.70;;;;;;5023146;28;20222;-84
2020/12/19 01:01:15;;;;;;;9.43;8.10;;;-0.20;96.60;;;;;;5025684;28;20206;-80
2020/12/19 01:03:42;;;;;;;10.73;8.07;;;-0.20;96.60;;;;;;5022743;28;21030;-82
2020/12/19 01:06:09;;;;;;;9.37;7.20;;;-0.20;96.60;;;;;;5025967;28;20700;-86
2020/12/19 01:08:35;;;;;;;9.93;8.00;;;-0.30;96.60;;;;;;5022552;28;20234;-81
2020/12/19 01:11:02;;;;;;;9.50;7.23;;;-0.40;96.60;;;;;;5027822;28;20203;-83
2020/12/19 01:13:28;;;;;;;9.83;7.90;;;-0.50;96.80;;;;;;5023777;28;20227;-81
2020/12/19 01:15:55;;;;;;;9.40;7.73;;;-0.50;96.90;;;;;;5029793;28;20341;-81
2020/12/19 01:18:22;;;;;;;10.60;8.10;;;-0.50;97.10;;;;;;5027233;28;20324;-81
2020/12/19 01:20:49;;;;;;;10.10;7.93;;;-0.50;97.10;;;;;;5027996;28;20600;-81
2020/12/19 01:23:15;;;;;;;10.57;8.00;;;-0.60;97.10;;;;;;5026439;28;20662;-85
2020/12/19 01:25:41;;;;;;;9.10;7.30;;;-0.60;97.20;;;;;;5033890;28;20264;-89
2020/12/19 01:28:07;;;;;;;11.27;8.20;;;-0.60;97.10;;;;;;5033539;28;20348;-83
2020/12/19 01:30:34;;;;;;;10.67;8.03;;;-0.60;97.20;;;;;;5030524;28;20263;-83
2020/12/19 01:33:00;;;;;;;9.33;6.83;;;-0.60;97.20;;;;;;5027725;28;20222;-87
2020/12/19 01:35:27;;;;;;;8.40;7.23;;;-0.60;97.20;;;;;;5028256;28;20202;-86
2020/12/19 01:37:53;;;;;;;7.10;6.40;;;-0.60;97.30;;;;;;5024957;28;20234;-86
2020/12/19 01:40:20;;;;;;;7.63;6.73;;;-0.60;97.20;;;;;;5028880;28;20201;-84
2020/12/19 01:42:46;;;;;;;7.57;6.63;;;-0.60;97.10;;;;;;5028480;28;20227;-82
2020/12/19 01:45:13;;;;;;;6.93;6.03;;;-0.60;97.10;;;;;;5029141;28;20256;-82
2020/12/19 01:47:39;;;;;;;7.60;6.90;;;-0.60;97.10;;;;;;5029408;28;20217;-87
2020/12/19 01:50:07;;;;;;;7.10;6.30;;;-0.60;97.00;;;;;;5027538;28;20206;-83
2020/12/19 01:52:36;;;;;;;7.40;6.57;;;-0.60;96.80;;;;;;5024927;28;20217;-87
2020/12/19 01:55:03;;;;;;;8.90;6.53;;;-0.60;96.80;;;;;;5028853;28;20210;-85
2020/12/19 01:57:32;;;;;;;8.03;6.93;;;-0.50;96.90;;;;;;5027648;28;20599;-84
2020/12/19 01:59:59;;;;;;;6.77;5.73;;;-0.50;96.90;;;;;;5027345;28;20226;-82
2020/12/19 02:02:25;;;;;;;7.97;6.10;;;-0.50;97.00;;;;;;5026064;28;20202;-82
2020/12/19 02:04:52;;;;;;;7.97;6.23;;;-0.60;96.50;;;;;;5030967;28;20639;-86
2020/12/19 02:07:19;;;;;;;7.60;6.33;;;-0.60;96.50;;;;;;5029220;28;20412;-85
2020/12/19 02:09:46;;;;;;;8.43;6.70;;;-0.50;96.60;;;;;;5028621;28;20312;-80
2020/12/19 02:12:13;;;;;;;8.57;6.33;;;-0.60;96.50;;;;;;5028601;28;20327;-88
2020/12/19 02:14:41;;;;;;;7.87;6.00;;;-0.60;96.60;;;;;;5030381;28;20388;-80
2020/12/19 02:17:09;;;;;;;8.40;6.50;;;-0.60;96.50;;;;;;5027072;28;20207;-85
2020/12/19 02:19:36;;;;;;;7.30;6.50;;;-0.60;96.60;;;;;;5029441;28;20228;-82
2020/12/19 02:22:04;;;;;;;7.37;6.43;;;-0.70;96.50;;;;;;5032273;28;20205;-83
2020/12/19 02:24:32;;;;;;;7.90;6.20;;;-0.70;96.70;;;;;;5028988;28;20225;-85
2020/12/19 02:26:59;;;;;;;9.17;6.83;;;-0.70;96.60;;;;;;5040540;28;20196;-82
2020/12/19 02:29:27;;;;;;;6.93;5.50;;;-0.80;96.70;;;;;;5045030;28;20621;-82
2020/12/19 02:31:55;;;;;;;7.43;5.53;;;-0.70;96.80;;;;;;5046705;28;20198;-81
2020/12/19 02:34:21;;;;;;;6.13;5.33;;;-0.70;96.80;;;;;;5044529;28;20305;-83
2020/12/19 02:36:48;;;;;;;8.17;6.83;;;-0.70;96.50;;;;;;5050463;28;20303;-84
2020/12/19 02:39:14;;;;;;;8.90;5.90;;;-0.80;96.50;;;;;;5046764;28;20647;-83
2020/12/19 02:41:43;;;;;;;8.83;6.60;;;-0.80;96.50;;;;;;5039114;28;20558;-82
2020/12/19 02:44:13;;;;;;;7.37;6.53;;;-0.80;96.60;;;;;;5030255;28;20740;-85
2020/12/19 02:46:39;;;;;;;6.93;5.73;;;-0.70;96.80;;;;;;5032786;28;20621;-83
2020/12/19 02:49:07;;;;;;;6.40;5.57;;;-0.80;96.50;;;;;;5036513;28;20616;-80
2020/12/19 02:51:33;;;;;;;6.07;5.47;;;-0.70;96.50;;;;;;5043211;28;20190;-80
2020/12/19 02:54:00;;;;;;;7.60;6.07;;;-0.70;96.50;;;;;;5039143;28;20591;-80
2020/12/19 02:56:27;;;;;;;6.40;5.70;;;-0.70;96.30;;;;;;5042569;28;20665;-85
2020/12/19 02:58:54;;;;;;;7.20;5.77;;;-0.70;96.40;;;;;;5044136;28;20702;-82
2020/12/19 03:01:27;;;;;;;8.27;5.47;;;-0.80;96.40;;;;;;5032760;28;20198;-82
2020/12/19 03:03:53;;;;;;;6.80;5.77;;;-0.80;96.50;;;;;;5037068;28;20237;-81
2020/12/19 03:06:20;;;;;;;8.00;5.97;;;-0.80;96.50;;;;;;5040956;28;20634;-81
2020/12/19 03:08:46;;;;;;;6.53;5.47;;;-0.80;96.40;;;;;;5038147;28;20234;-81
2020/12/19 03:11:12;;;;;;;6.07;5.20;;;-0.80;96.30;;;;;;5041149;28;20616;-80
2020/12/19 03:13:39;;;;;;;7.20;5.50;;;-0.80;96.40;;;;;;5040298;28;21520;-80
2020/12/19 03:16:06;;;;;;;7.17;5.63;;;-0.80;96.50;;;;;;5039855;28;20202;-83
2020/12/19 03:18:32;;;;;;;6.47;5.87;;;-0.80;96.50;;;;;;5035223;28;20503;-80
2020/12/19 03:20:58;;;;;;;6.60;5.20;;;-0.80;96.50;;;;;;5045750;28;20239;-85
2020/12/19 03:23:25;;;;;;;6.30;5.50;;;-0.90;96.50;;;;;;5045024;28;20309;-81
2020/12/19 03:25:51;;;;;;;5.87;5.27;;;-0.90;96.60;;;;;;5046816;28;20232;-80
2020/12/19 03:28:18;;;;;;;7.77;5.77;;;-0.80;96.80;;;;;;5032933;28;20217;-86
2020/12/19 03:30:44;;;;;;;6.57;5.20;;;-0.80;96.70;;;;;;5043302;28;20531;-84
2020/12/19 03:33:11;;;;;;;6.77;5.60;;;-0.80;96.70;;;;;;5039368;28;20308;-81
2020/12/19 03:35:39;;;;;;;5.63;4.90;;;-0.80;96.60;;;;;;5044801;28;20214;-85
2020/12/19 03:38:06;;;;;;;5.97;5.00;;;-0.80;96.50;;;;;;5041095;28;20245;-83
2020/12/19 03:40:33;;;;;;;6.67;5.13;;;-0.80;96.50;;;;;;5042283;28;20209;-80
2020/12/19 03:42:59;;;;;;;5.60;4.90;;;-0.80;96.70;;;;;;5039364;28;20225;-81
2020/12/19 03:45:25;;;;;;;6.03;5.10;;;-0.70;96.50;;;;;;5042609;28;20576;-80
2020/12/19 03:47:52;;;;;;;5.83;4.83;;;-0.80;96.50;;;;;;5047800;28;20222;-82
2020/12/19 03:50:19;;;;;;;6.57;5.60;;;-0.80;96.50;;;;;;5040531;28;20214;-80
2020/12/19 03:52:45;;;;;;;5.50;4.80;;;-0.80;96.50;;;;;;5043288;28;20225;-80
2020/12/19 03:55:11;;;;;;;6.47;5.60;;;-0.80;96.50;;;;;;5039511;28;20611;-80
2020/12/19 03:57:37;;;;;;;6.20;4.97;;;-0.80;96.70;;;;;;5044146;28;20201;-80
2020/12/19 04:00:05;;;;;;;6.17;4.97;;;-0.80;96.80;;;;;;5045170;28;20232;-82
2020/12/19 04:02:32;;;;;;;6.47;5.30;;;-0.80;96.90;;;;;;5036588;28;20279;-81
2020/12/19 04:04:58;;;;;;;6.20;5.43;;;-0.90;96.70;;;;;;5046586;28;20720;-83
2020/12/19 04:07:25;;;;;;;6.13;5.50;;;-0.80;96.80;;;;;;5045740;28;20208;-80
2020/12/19 04:09:51;;;;;;;6.03;5.13;;;-0.80;96.80;;;;;;5045474;28;20698;-82
2020/12/19 04:12:18;;;;;;;5.43;4.67;;;-0.70;96.70;;;;;;5044945;28;20340;-80
2020/12/19 04:14:44;;;;;;;5.80;5.20;;;-0.80;96.50;;;;;;5045440;28;20218;-80
2020/12/19 04:17:11;;;;;;;8.60;4.97;;;-0.80;96.50;;;;;;5043726;28;20205;-81
2020/12/19 04:19:39;;;;;;;13.57;6.53;;;-0.90;96.40;;;;;;5049150;28;20398;-84
2020/12/19 04:22:06;;;;;;;13.33;5.73;;;-1.00;96.70;;;;;;5048692;28;20240;-86
2020/12/19 04:24:33;;;;;;;32.60;6.03;;;-1.10;96.90;;;;;;5051270;28;20234;-83
2020/12/19 04:26:59;;;;;;;8.30;5.17;;;-1.10;97.10;;;;;;5053146;28;20221;-83
2020/12/19 04:29:26;;;;;;;46.57;6.30;;;-1.00;97.20;;;;;;5050004;28;20225;-85
2020/12/19 04:31:53;;;;;;;38.90;6.53;;;-1.00;97.00;;;;;;5043419;28;20556;-87
2020/12/19 04:34:19;;;;;;;35.20;5.93;;;-1.00;97.00;;;;;;5047102;28;20223;-82
2020/12/19 04:36:46;;;;;;;27.03;6.07;;;-1.00;97.30;;;;;;5044440;28;20206;-85
2020/12/19 04:39:12;;;;;;;48.57;6.83;;;-1.00;97.30;;;;;;5045114;28;20224;-84
2020/12/19 04:41:39;;;;;;;36.83;6.00;;;-0.90;97.10;;;;;;5045746;28;20198;-84
2020/12/19 04:44:05;;;;;;;34.37;5.40;;;-1.10;97.10;;;;;;5045934;28;20221;-82
2020/12/19 04:46:33;;;;;;;43.17;6.00;;;-1.00;97.30;;;;;;5047753;28;20462;-85
2020/12/19 04:49:00;;;;;;;25.70;6.20;;;-1.00;97.30;;;;;;5043455;28;20224;-82
2020/12/19 04:51:27;;;;;;;9.43;4.80;;;-1.00;97.40;;;;;;5053934;28;20205;-83
2020/12/19 04:53:54;;;;;;;34.60;6.07;;;-0.90;97.50;;;;;;5044954;28;20274;-82
2020/12/19 04:56:23;;;;;;;13.23;5.20;;;-0.70;97.20;;;;;;5055348;28;20219;-84
2020/12/19 04:58:54;;;;;;;28.50;5.50;;;-0.70;96.80;;;;;;5048485;28;20237;-82
2020/12/19 05:01:20;;;;;;;18.30;4.93;;;-0.80;96.70;;;;;;5043440;28;20567;-82
2020/12/19 05:03:48;;;;;;;5.50;4.60;;;-0.80;96.90;;;;;;5049170;28;20275;-82
2020/12/19 05:06:17;;;;;;;13.80;5.43;;;-0.70;96.90;;;;;;5050152;28;20704;-82
2020/12/19 05:08:43;;;;;;;51.03;6.37;;;-0.60;96.70;;;;;;5048354;28;20222;-84
2020/12/19 05:11:11;;;;;;;11.87;4.93;;;-0.70;96.50;;;;;;5041900;28;20198;-83
2020/12/19 05:13:39;;;;;;;47.07;6.67;;;-0.80;96.50;;;;;;5050118;28;20234;-86
2020/12/19 05:16:06;;;;;;;34.00;6.37;;;-0.80;96.70;;;;;;5046407;28;20205;-85
2020/12/19 05:18:35;;;;;;;31.47;5.83;;;-0.90;97.10;;;;;;5048490;28;20597;-83
2020/12/19 05:21:03;;;;;;;42.97;6.30;;;-0.90;97.40;;;;;;5043755;28;20206;-85
2020/12/19 05:23:30;;;;;;;13.00;5.10;;;-0.90;97.40;;;;;;5043643;28;20237;-86
2020/12/19 05:25:57;;;;;;;15.23;5.60;;;-1.00;97.50;;;;;;5049930;28;20220;-85
2020/12/19 05:28:23;;;;;;;10.73;4.87;;;-0.90;97.70;;;;;;5043519;28;20237;-84
2020/12/19 05:30:50;;;;;;;17.50;5.20;;;-0.90;97.80;;;;;;5051351;28;20282;-82
2020/12/19 05:33:17;;;;;;;8.70;4.90;;;-0.80;97.50;;;;;;5048643;28;20259;-83
2020/12/19 05:35:44;;;;;;;20.23;5.43;;;-0.80;97.50;;;;;;5046294;28;20666;-86
2020/12/19 05:38:11;;;;;;;55.53;6.73;;;-0.80;97.40;;;;;;5043827;28;20229;-82
2020/12/19 05:40:38;;;;;;;6.10;4.80;;;-0.80;97.30;;;;;;5044587;28;20687;-83
2020/12/19 05:43:05;;;;;;;13.27;4.97;;;-0.70;97.30;;;;;;5044590;28;20535;-85
2020/12/19 05:45:31;;;;;;;9.77;4.60;;;-0.70;96.80;;;;;;5045316;28;20719;-85
2020/12/19 05:47:58;;;;;;;9.40;5.00;;;-0.80;96.70;;;;;;5044058;28;20225;-83
2020/12/19 05:50:25;;;;;;;9.80;5.27;;;-0.80;96.90;;;;;;5041809;28;20360;-83
2020/12/19 05:52:51;;;;;;;14.67;5.57;;;-0.80;97.30;;;;;;5038859;28;20214;-87
2020/12/19 05:55:19;;;;;;;8.07;5.50;;;-0.80;97.30;;;;;;5031355;28;20210;-85
2020/12/19 05:57:46;;;;;;;16.37;5.17;;;-0.70;97.20;;;;;;5031930;28;20253;-88
2020/12/19 06:00:15;;;;;;;14.10;5.43;;;-0.80;96.80;;;;;;5032800;28;20221;-84
2020/12/19 06:02:42;;;;;;;8.87;5.00;;;-0.70;96.90;;;;;;5033587;28;20199;-86
2020/12/19 06:05:09;;;;;;;16.20;5.20;;;-0.70;96.60;;;;;;5033016;28;20198;-83
2020/12/19 06:07:38;;;;;;;6.73;5.23;;;-0.70;96.50;;;;;;5033611;28;20198;-86
2020/12/19 06:10:08;;;;;;;8.43;4.93;;;-0.70;96.60;;;;;;5042784;28;20240;-88
2020/12/19 06:12:45;;;;;;;11.10;5.50;;;-0.70;96.60;;;;;;5037678;28;20212;-84
2020/12/19 06:15:19;;;;;;;13.33;5.80;;;-0.70;96.60;;;;;;5038036;28;20225;-86
2020/12/19 06:17:54;;;;;;;5.50;4.87;;;-0.70;96.60;;;;;;5036943;28;20230;-85
2020/12/19 06:20:20;;;;;;;7.23;5.53;;;-0.70;96.50;;;;;;5038209;28;20665;-84
2020/12/19 06:22:49;;;;;;;9.20;5.43;;;-0.60;96.70;;;;;;5037614;28;20226;-87
2020/12/19 06:25:40;;;;;;;7.53;5.73;;;-0.60;96.70;;;;;;5037307;28;20227;-82
2020/12/19 06:28:06;;;;;;;12.03;6.17;;;-0.60;96.80;;;;;;5035782;28;20275;-85
2020/12/19 06:30:33;;;;;;;10.67;6.03;;;-0.60;96.50;;;;;;5039115;28;20216;-87
2020/12/19 06:33:13;;;;;;;6.63;5.27;;;-0.60;96.40;;;;;;5046676;28;20225;-83
2020/12/19 06:35:48;;;;;;;8.50;5.53;;;-0.50;96.50;;;;;;5046464;28;21127;-82
2020/12/19 06:38:42;;;;;;;7.53;5.30;;;-0.50;96.20;;;;;;5044936;28;20233;-84
2020/12/19 06:41:09;;;;;;;8.07;5.23;;;-0.50;96.10;;;;;;5048226;28;20254;-82
2020/12/19 06:43:35;;;;;;;13.07;5.67;;;-0.60;96.20;;;;;;5043219;28;20962;-84
2020/12/19 06:46:01;;;;;;;5.93;4.93;;;-0.70;96.00;;;;;;5044696;28;20221;-86
2020/12/19 06:48:30;;;;;;;9.57;4.77;;;-0.70;96.40;;;;;;5043585;28;20229;-82
2020/12/19 06:50:59;;;;;;;8.07;4.97;;;-0.60;96.20;;;;;;5048960;28;20202;-82
2020/12/19 06:53:32;;;;;;;6.23;4.70;;;-0.70;96.20;;;;;;5047917;28;20225;-83
2020/12/19 06:55:59;;;;;;;12.33;5.13;;;-0.70;96.10;;;;;;5051263;28;20707;-85
2020/12/19 06:58:33;;;;;;;7.80;4.67;;;-0.60;96.10;;;;;;5045800;28;20692;-86
2020/12/19 07:01:00;;;;;;;5.53;4.80;;;-0.70;96.00;;;;;;5046319;28;20547;-84
2020/12/19 07:03:38;;;;;;;6.87;4.67;;;-0.70;96.00;;;;;;5046607;28;20217;-84
2020/12/19 07:06:12;;;;;;;5.57;4.70;;;-0.60;95.70;;;;;;5043249;28;20676;-87
2020/12/19 07:08:39;;;;;;;6.20;4.43;;;-0.50;95.70;;;;;;5045225;28;20230;-82
2020/12/19 07:11:10;;;;;;;9.50;4.80;;;-0.50;95.50;;;;;;5047897;28;20202;-85
2020/12/19 07:13:54;;;;;;;4.90;4.40;;;-0.50;95.30;;;;;;5046117;28;20632;-81
2020/12/19 07:16:46;;;;;;;6.83;4.67;;;-0.60;95.20;;;;;;5044573;28;20203;-85
2020/12/19 07:19:24;;;;;;;5.50;4.83;;;-0.60;95.40;;;;;;5042543;28;20283;-84
2020/12/19 07:21:52;;;;;;;7.27;4.93;;;-0.50;95.60;;;;;;5042351;28;20210;-81
2020/12/19 07:24:19;;;;;;;10.13;4.63;;;-0.50;95.50;;;;;;5045930;28;20756;-83
2020/12/19 07:26:46;;;;;;;7.07;5.77;;;-0.50;95.40;;;;;;5025924;28;21306;-84
2020/12/19 07:29:18;;;;;;;13.97;6.00;;;-0.40;95.50;;;;;;5030446;28;20648;-87
2020/12/19 07:31:46;;;;;;;7.97;6.00;;;-0.50;95.40;;;;;;5025463;28;20622;-90
2020/12/19 07:34:12;;;;;;;11.57;5.93;;;-0.40;95.30;;;;;;5026306;28;20229;-87
2020/12/19 07:36:41;;;;;;;7.90;5.93;;;-0.30;95.20;;;;;;5030995;28;20248;-91
2020/12/19 07:39:09;;;;;;;7.27;6.33;;;-0.30;95.10;;;;;;5025080;28;20237;-87
2020/12/19 07:41:37;;;;;;;14.50;6.33;;;-0.20;94.80;;;;;;5021756;28;20607;-87
2020/12/19 07:44:15;;;;;;;13.80;6.33;;;-0.10;94.80;;;;;;5019474;28;20268;-83
2020/12/19 07:46:56;;;;;;;14.03;6.03;;;-0.20;94.60;;;;;;5021469;28;20604;-84
2020/12/19 07:49:37;;;;;;;10.77;5.73;;;-0.30;94.90;;;;;;5018837;28;20786;-81
2020/12/19 07:52:28;;;;;;;11.07;5.27;;;-0.30;95.10;;;;;;5024321;28;20624;-81
2020/12/19 07:54:57;;;;;;;5.73;4.97;;;-0.30;95.10;;;;;;5005677;28;20391;-81
2020/12/19 07:57:26;;;;;;;6.83;6.10;;;-0.20;95.10;;;;;;5020795;28;20575;-84
2020/12/19 07:59:53;;;;;;;10.07;5.80;;;-0.30;95.10;;;;;;5020385;28;20222;-82
2020/12/19 08:02:20;;;;;;;7.43;6.47;;;-0.30;95.10;;;;;;5014915;28;20210;-85
2020/12/19 08:04:52;;;;;;;7.37;6.43;;;-0.20;95.30;;;;;;5015765;28;20320;-84
2020/12/19 08:07:20;;;;;;;18.37;7.30;;;-0.10;94.90;;;;;;5018441;28;20320;-90
2020/12/19 08:10:00;;;;;;;7.93;6.57;;;-0.30;94.90;;;;;;5026413;28;20222;-87
2020/12/19 08:12:28;;;;;;;9.50;5.90;;;-0.20;95.10;;;;;;5023898;28;20206;-92
2020/12/19 08:14:55;;;;;;;6.47;5.83;;;-0.30;95.20;;;;;;5029396;28;20213;-88
2020/12/19 08:17:22;;;;;;;9.97;5.50;;;-0.30;95.70;;;;;;5041769;28;20499;-84
2020/12/19 08:19:52;;;;;;;10.87;5.37;;;-0.20;95.10;;;;;;5029063;28;20233;-86
2020/12/19 08:22:20;;;;;;;23.00;6.33;;;-0.10;95.10;;;;;;5023020;28;20208;-84
2020/12/19 08:24:47;;;;;;;15.60;6.10;;;-0.20;95.00;;;;;;5019863;28;20581;-86
2020/12/19 08:27:43;;;;;;;6.70;5.90;;;-0.10;94.90;;;;;;5030878;28;20224;-87
2020/12/19 08:30:16;;;;;;;7.37;6.17;;;0.10;94.60;;;;;;5021416;28;20209;-92
2020/12/19 08:32:44;;;;;;;7.17;5.97;;;0.20;94.50;;;;;;5023760;28;20209;-87
2020/12/19 08:35:18;;;;;;;21.57;6.50;;;0.20;94.10;;;;;;5027465;28;20229;-89
2020/12/19 08:37:44;;;;;;;18.30;6.67;;;0.10;94.30;;;;;;5031481;28;20198;-86
2020/12/19 08:40:14;;;;;;;19.10;6.93;;;0.00;94.70;;;;;;5025768;28;20584;-87
2020/12/19 08:42:42;;;;;;;6.50;5.87;;;0.10;94.70;;;;;;5030236;28;20212;-93
2020/12/19 08:45:25;;;;;;;12.57;6.33;;;0.20;94.30;;;;;;5021149;28;20203;-86
2020/12/19 08:47:54;;;;;;;6.63;5.53;;;0.30;94.10;;;;;;5024896;28;21183;-84
2020/12/19 08:50:26;;;;;;;6.67;5.93;;;0.50;94.10;;;;;;5025964;28;20494;-84
2020/12/19 08:53:11;;;;;;;8.40;4.90;;;0.60;94.00;;;;;;5027411;28;20258;-82
2020/12/19 08:55:37;;;;;;;8.70;6.10;;;0.70;93.20;;;;;;5029450;28;20214;-87
2020/12/19 08:58:05;;;;;;;9.90;6.40;;;0.60;93.20;;;;;;5024439;28;20231;-82
2020/12/19 09:00:39;;;;;;;8.27;6.20;;;0.60;93.30;;;;;;5031148;28;20241;-86
2020/12/19 09:03:08;;;;;;;8.67;5.43;;;0.50;93.70;;;;;;5034017;28;20593;-86
2020/12/19 09:05:37;;;;;;;10.33;6.30;;;0.60;94.00;;;;;;5030738;28;20708;-84
2020/12/19 09:08:04;;;;;;;8.37;6.03;;;0.60;93.70;;;;;;5032468;28;20224;-84
2020/12/19 09:11:02;;;;;;;10.87;5.73;;;0.70;93.70;;;;;;5035255;28;20543;-82
2020/12/19 09:13:30;;;;;;;6.87;5.63;;;0.80;93.60;;;;;;5036309;28;20272;-88
2020/12/19 09:16:05;;;;;;;10.43;6.33;;;0.80;93.10;;;;;;5030187;28;20310;-86
2020/12/19 09:18:33;;;;;;;12.57;6.47;;;0.90;93.10;;;;;;5029798;28;20235;-90
2020/12/19 09:21:01;;;;;;;12.03;5.90;;;0.90;92.60;;;;;;5031488;28;20235;-87
2020/12/19 09:23:28;;;;;;;53.03;7.23;;;1.00;93.00;;;;;;5032964;28;20229;-81
2020/12/19 09:25:58;;;;;;;17.17;6.73;;;0.90;92.20;;;;;;5027465;28;20229;-82
2020/12/19 09:28:25;;;;;;;18.87;6.97;;;0.90;92.70;;;;;;5026330;28;20238;-82
2020/12/19 09:30:53;;;;;;;7.73;6.17;;;0.70;92.90;;;;;;5036391;28;20201;-82
2020/12/19 09:33:20;;;;;;;11.43;6.07;;;0.70;93.30;;;;;;5039363;28;20248;-82
2020/12/19 09:35:46;;;;;;;8.93;6.60;;;0.80;93.80;;;;;;5037634;28;20681;-81
2020/12/19 09:38:13;;;;;;;9.33;6.70;;;0.90;93.70;;;;;;5030391;28;20232;-89
2020/12/19 09:40:39;;;;;;;8.07;6.80;;;0.90;93.60;;;;;;5028603;28;20213;-87
2020/12/19 09:43:07;;;;;;;13.73;6.87;;;1.10;93.50;;;;;;5041142;28;20673;-85
2020/12/19 09:45:34;;;;;;;10.27;5.93;;;1.10;92.70;;;;;;5032025;28;20229;-86
2020/12/19 09:48:02;;;;;;;10.47;6.00;;;1.10;93.40;;;;;;5046818;28;20221;-86
2020/12/19 09:50:29;;;;;;;26.57;5.90;;;1.30;92.60;;;;;;5049265;28;20296;-85
2020/12/19 09:52:55;;;;;;;10.53;5.80;;;1.40;92.30;;;;;;5038398;28;20585;-90
2020/12/19 09:55:23;;;;;;;12.77;6.23;;;1.30;92.20;;;;;;5042546;28;20204;-86
2020/12/19 09:57:52;;;;;;;6.47;5.87;;;1.10;92.60;;;;;;5029478;28;20233;-89
2020/12/19 10:00:18;;;;;;;6.70;6.00;;;1.30;92.60;;;;;;5037945;28;20225;-86
2020/12/19 10:02:49;;;;;;;6.93;6.10;;;1.40;92.50;;;;;;5035547;28;20197;-84
2020/12/19 10:05:16;;;;;;;9.47;6.80;;;1.60;92.40;;;;;;5040017;28;20248;-86
2020/12/19 10:07:42;;;;;;;8.90;6.47;;;1.80;91.80;;;;;;5049435;28;20206;-86
2020/12/19 10:10:09;;;;;;;15.73;8.13;;;1.60;91.80;;;;;;5045233;28;20202;-84
2020/12/19 10:12:35;;;;;;;16.70;7.23;;;1.50;92.10;;;;;;5046515;28;20293;-89
2020/12/19 10:15:02;;;;;;;13.13;7.03;;;1.60;92.20;;;;;;5044948;28;20660;-89
2020/12/19 10:17:28;;;;;;;12.67;7.97;;;1.50;92.30;;;;;;5043713;28;20204;-89
2020/12/19 10:19:55;;;;;;;10.53;7.40;;;1.50;92.30;;;;;;5041331;28;20620;-84
2020/12/19 10:22:22;;;;;;;9.13;7.37;;;1.70;92.50;;;;;;5042637;28;20482;-86
2020/12/19 10:24:49;;;;;;;9.63;6.03;;;1.90;92.20;;;;;;5045672;28;20230;-86
2020/12/19 10:27:15;;;;;;;8.80;6.80;;;2.00;92.10;;;;;;5046515;28;20688;-87
2020/12/19 10:29:41;;;;;;;8.30;7.40;;;2.20;91.60;;;;;;5044062;28;20317;-87
2020/12/19 10:32:09;;;;;;;27.60;7.63;;;2.10;91.60;;;;;;5041554;28;20209;-87
2020/12/19 10:34:36;;;;;;;12.60;7.10;;;2.00;91.50;;;;;;5038485;28;20629;-83
2020/12/19 10:37:02;;;;;;;9.23;7.17;;;1.90;91.60;;;;;;5038776;28;20577;-86
2020/12/19 10:39:30;;;;;;;5.80;5.00;;;2.00;91.80;;;;;;5039668;28;20239;-86
2020/12/19 10:41:56;;;;;;;26.47;6.40;;;2.30;91.80;;;;;;5054725;28;20594;-86
2020/12/19 10:44:23;;;;;;;8.63;6.27;;;2.00;91.50;;;;;;5046627;28;20245;-84
2020/12/19 10:46:49;;;;;;;8.73;5.93;;;1.70;91.90;;;;;;5041641;28;20315;-86
2020/12/19 10:49:16;;;;;;;23.53;6.93;;;1.70;92.60;;;;;;5037522;28;20228;-87
2020/12/19 10:51:43;;;;;;;7.83;6.23;;;1.90;92.30;;;;;;5040238;28;20733;-87
2020/12/19 10:54:09;;;;;;;6.33;5.40;;;2.00;91.80;;;;;;5038617;28;20329;-87
2020/12/19 10:56:36;;;;;;;6.83;6.00;;;2.20;91.80;;;;;;5050096;28;20436;-84
2020/12/19 10:59:03;;;;;;;18.73;6.33;;;2.10;92.30;;;;;;5051867;28;20232;-85
2020/12/19 11:01:29;;;;;;;8.07;5.70;;;2.00;92.00;;;;;;5053712;28;20555;-85
2020/12/19 11:03:55;;;;;;;7.60;6.27;;;2.10;91.80;;;;;;5042310;28;20233;-85
2020/12/19 11:06:23;;;;;;;7.20;5.80;;;2.20;91.70;;;;;;5047022;28;21012;-85
2020/12/19 11:08:50;;;;;;;6.90;6.03;;;2.40;91.70;;;;;;5042734;28;20236;-86
2020/12/19 11:11:17;;;;;;;8.93;6.50;;;2.50;91.40;;;;;;5037598;28;20255;-87
2020/12/19 11:13:44;;;;;;;7.07;5.80;;;2.30;91.70;;;;;;5036291;28;20226;-86
2020/12/19 11:16:21;;;;;;;15.33;6.63;;;2.40;91.60;;;;;;5045453;28;20485;-81
2020/12/19 11:18:47;;;;;;;7.43;6.20;;;2.20;91.70;;;;;;5045559;28;20217;-82
2020/12/19 11:21:13;;;;;;;7.27;6.13;;;2.40;91.60;;;;;;5049997;28;20209;-84
2020/12/19 11:23:40;;;;;;;7.03;6.33;;;2.40;91.70;;;;;;5039362;28;20230;-84
2020/12/19 11:26:06;;;;;;;6.73;5.93;;;2.40;91.80;;;;;;5045391;28;20256;-84
2020/12/19 11:28:33;;;;;;;7.33;5.80;;;2.50;91.70;;;;;;5051292;28;20225;-83
2020/12/19 11:31:05;;;;;;;7.47;6.33;;;2.60;91.30;;;;;;5047341;28;20194;-89
2020/12/19 11:33:31;;;;;;;9.30;7.20;;;2.90;91.30;;;;;;5041403;28;20241;-85
2020/12/19 11:36:00;;;;;;;15.23;7.13;;;2.80;90.90;;;;;;5040864;28;20564;-82
2020/12/19 11:38:26;;;;;;;8.20;6.90;;;2.80;91.20;;;;;;5046200;28;20535;-87
2020/12/19 11:40:53;;;;;;;7.53;6.70;;;2.60;91.00;;;;;;5050804;28;20205;-84
2020/12/19 11:43:21;;;;;;;8.30;7.00;;;2.50;91.40;;;;;;5043090;28;20293;-87
2020/12/19 11:45:47;;;;;;;15.17;7.93;;;2.50;91.70;;;;;;5049148;28;20217;-88
2020/12/19 11:48:14;;;;;;;8.03;6.80;;;2.60;91.60;;;;;;5053917;28;20226;-87
2020/12/19 11:50:41;;;;;;;12.37;6.93;;;2.50;91.80;;;;;;5050506;28;20194;-86
2020/12/19 11:53:07;;;;;;;15.77;7.53;;;2.50;92.40;;;;;;5047369;28;20226;-83
2020/12/19 11:55:35;;;;;;;9.00;6.97;;;2.60;91.80;;;;;;5044195;28;20198;-85
2020/12/19 11:58:01;;;;;;;26.90;8.30;;;2.80;91.40;;;;;;5050485;28;20237;-86
2020/12/19 12:00:28;;;;;;;12.27;8.07;;;2.70;91.10;;;;;;5042458;28;20293;-82
2020/12/19 12:02:54;;;;;;;8.87;7.67;;;2.50;91.70;;;;;;5036281;28;20371;-84
2020/12/19 12:05:22;;;;;;;16.57;8.30;;;2.40;92.00;;;;;;5038473;28;20688;-89
2020/12/19 12:07:49;;;;;;;10.53;7.50;;;2.40;92.20;;;;;;5039391;28;20236;-86
2020/12/19 12:10:18;;;;;;;21.40;8.17;;;2.20;92.40;;;;;;5040088;28;20672;-87
2020/12/19 12:12:44;;;;;;;12.80;8.07;;;2.20;92.70;;;;;;5036267;28;20289;-84
2020/12/19 12:15:11;;;;;;;7.93;6.97;;;2.30;92.70;;;;;;5036358;28;20212;-85
2020/12/19 12:17:37;;;;;;;8.97;7.43;;;2.30;92.40;;;;;;5032693;28;20202;-84
2020/12/19 12:20:04;;;;;;;15.03;8.70;;;2.30;92.30;;;;;;5035817;28;20212;-85
2020/12/19 12:22:31;;;;;;;11.37;8.70;;;2.10;93.20;;;;;;5033899;28;20210;-84
2020/12/19 12:24:57;;;;;;;10.20;7.97;;;2.20;93.00;;;;;;5037598;28;20265;-84
2020/12/19 12:27:24;;;;;;;10.00;8.17;;;2.40;93.00;;;;;;5046333;28;20644;-83
2020/12/19 12:29:50;;;;;;;9.93;8.40;;;2.60;92.90;;;;;;5041495;28;20228;-84
2020/12/19 12:32:17;;;;;;;11.73;8.30;;;2.50;92.70;;;;;;5039983;28;20297;-84
2020/12/19 12:34:43;;;;;;;11.33;8.57;;;2.70;92.40;;;;;;5043294;28;20222;-86
2020/12/19 12:37:12;;;;;;;18.43;9.57;;;2.60;91.90;;;;;;5043665;28;20206;-82
2020/12/19 12:39:40;;;;;;;13.53;9.27;;;2.30;93.10;;;;;;5044127;28;20225;-83
2020/12/19 12:42:06;;;;;;;13.87;8.97;;;2.30;93.80;;;;;;5044270;28;20216;-85
2020/12/19 12:44:33;;;;;;;12.60;9.10;;;2.50;93.40;;;;;;5044982;28;20225;-85
2020/12/19 12:47:00;;;;;;;21.37;10.57;;;2.60;92.90;;;;;;5046603;28;20304;-83
2020/12/19 12:49:26;;;;;;;16.17;9.90;;;2.50;92.80;;;;;;5047053;28;20225;-87
2020/12/19 12:51:53;;;;;;;13.37;9.43;;;2.60;93.20;;;;;;5045777;28;20313;-84